sensor_id;sensor_type;location;lat;lon;timestamp;pressure;altitude;pressure_sealevel;temperature;humidity
61035;BME280;46916;40.564;-7.958;2023-08-20T00:00:36;97705.25;;;24.05;82.54
61035;BME280;46916;40.564;-7.958;2023-08-20T00:02:43;97706.88;;;24.06;82.19
61035;BME280;46916;40.564;-7.958;2023-08-20T00:04:46;97706.66;;;24.07;81.95
61035;BME280;46916;40.564;-7.958;2023-08-20T00:06:49;97696.19;;;24.06;81.85
61035;BME280;46916;40.564;-7.958;2023-08-20T00:08:49;97700.50;;;24.07;81.63
61035;BME280;46916;40.564;-7.958;2023-08-20T00:10:50;97707.47;;;24.08;81.63
61035;BME280;46916;40.564;-7.958;2023-08-20T00:12:50;97704.81;;;24.08;81.35
61035;BME280;46916;40.564;-7.958;2023-08-20T00:16:56;97704.22;;;24.06;81.60
61035;BME280;46916;40.564;-7.958;2023-08-20T00:18:57;97709.56;;;24.06;81.62
61035;BME280;46916;40.564;-7.958;2023-08-20T00:20:58;97704.41;;;24.04;81.85
61035;BME280;46916;40.564;-7.958;2023-08-20T00:23:00;97706.06;;;24.05;81.88
61035;BME280;46916;40.564;-7.958;2023-08-20T00:25:00;97712.22;;;24.06;81.65
61035;BME280;46916;40.564;-7.958;2023-08-20T00:27:01;97712.41;;;24.04;81.71
61035;BME280;46916;40.564;-7.958;2023-08-20T00:29:02;97702.75;;;24.03;81.56
61035;BME280;46916;40.564;-7.958;2023-08-20T00:31:04;97704.00;;;24.01;81.66
61035;BME280;46916;40.564;-7.958;2023-08-20T00:33:04;97701.75;;;23.97;81.40
61035;BME280;46916;40.564;-7.958;2023-08-20T00:35:05;97708.97;;;23.97;81.63
61035;BME280;46916;40.564;-7.958;2023-08-20T00:37:08;97705.66;;;23.95;81.78
61035;BME280;46916;40.564;-7.958;2023-08-20T00:39:08;97706.47;;;23.95;82.02
61035;BME280;46916;40.564;-7.958;2023-08-20T00:41:09;97706.47;;;23.95;81.79
61035;BME280;46916;40.564;-7.958;2023-08-20T00:43:11;97704.00;;;23.94;81.89
61035;BME280;46916;40.564;-7.958;2023-08-20T00:45:11;97702.56;;;23.91;81.62
61035;BME280;46916;40.564;-7.958;2023-08-20T00:47:13;97708.97;;;23.90;81.76
61035;BME280;46916;40.564;-7.958;2023-08-20T00:49:14;97701.97;;;23.89;81.96
61035;BME280;46916;40.564;-7.958;2023-08-20T00:51:14;97701.97;;;23.89;81.94
61035;BME280;46916;40.564;-7.958;2023-08-20T00:53:15;97696.63;;;23.89;81.94
61035;BME280;46916;40.564;-7.958;2023-08-20T00:55:16;97705.69;;;23.88;81.96
61035;BME280;46916;40.564;-7.958;2023-08-20T00:57:18;97709.16;;;23.89;82.15
61035;BME280;46916;40.564;-7.958;2023-08-20T00:59:22;97702.38;;;23.86;82.36
61035;BME280;46916;40.564;-7.958;2023-08-20T01:01:23;97690.84;;;23.86;82.38
61035;BME280;46916;40.564;-7.958;2023-08-20T01:03:24;97697.03;;;23.86;82.38
61035;BME280;46916;40.564;-7.958;2023-08-20T01:05:24;97690.84;;;23.86;82.40
61035;BME280;46916;40.564;-7.958;2023-08-20T01:07:30;97700.34;;;23.88;82.49
61035;BME280;46916;40.564;-7.958;2023-08-20T01:09:53;97698.66;;;23.87;82.26
61035;BME280;46916;40.564;-7.958;2023-08-20T01:11:59;97698.06;;;23.85;82.38
61035;BME280;46916;40.564;-7.958;2023-08-20T01:14:00;97699.28;;;23.83;82.50
61035;BME280;46916;40.564;-7.958;2023-08-20T01:16:01;97693.34;;;23.81;82.49
61035;BME280;46916;40.564;-7.958;2023-08-20T01:18:02;97694.56;;;23.78;82.47
61035;BME280;46916;40.564;-7.958;2023-08-20T01:20:03;97692.13;;;23.77;82.54
61035;BME280;46916;40.564;-7.958;2023-08-20T01:26:50;97690.88;;;23.66;82.45
61035;BME280;46916;40.564;-7.958;2023-08-20T01:28:56;97691.69;;;23.66;82.55
61035;BME280;46916;40.564;-7.958;2023-08-20T01:30:59;97688.19;;;23.66;82.72
61035;BME280;46916;40.564;-7.958;2023-08-20T01:33:01;97695.81;;;23.69;82.64
61035;BME280;46916;40.564;-7.958;2023-08-20T01:35:04;97686.16;;;23.68;82.90
61035;BME280;46916;40.564;-7.958;2023-08-20T01:37:06;97692.31;;;23.68;82.80
61035;BME280;46916;40.564;-7.958;2023-08-20T01:39:09;97689.03;;;23.66;82.76
61035;BME280;46916;40.564;-7.958;2023-08-20T01:41:10;97690.06;;;23.65;82.91
61035;BME280;46916;40.564;-7.958;2023-08-20T01:43:11;97693.53;;;23.66;82.95
61035;BME280;46916;40.564;-7.958;2023-08-20T01:45:12;97686.53;;;23.65;82.57
61035;BME280;46916;40.564;-7.958;2023-08-20T01:47:13;97691.69;;;23.66;82.82
61035;BME280;46916;40.564;-7.958;2023-08-20T01:49:13;97687.56;;;23.64;83.00
61035;BME280;46916;40.564;-7.958;2023-08-20T01:51:14;97684.91;;;23.64;82.76
61035;BME280;46916;40.564;-7.958;2023-08-20T01:53:15;97678.50;;;23.65;82.88
61035;BME280;46916;40.564;-7.958;2023-08-20T01:55:16;97682.22;;;23.64;82.58
61035;BME280;46916;40.564;-7.958;2023-08-20T01:57:17;97682.22;;;23.64;82.36
61035;BME280;46916;40.564;-7.958;2023-08-20T01:59:18;97683.03;;;23.64;82.31
61035;BME280;46916;40.564;-7.958;2023-08-20T02:01:19;97679.13;;;23.67;82.73
61035;BME280;46916;40.564;-7.958;2023-08-20T02:03:19;97693.16;;;23.69;82.55
61035;BME280;46916;40.564;-7.958;2023-08-20T02:05:20;97690.47;;;23.69;82.61
61035;BME280;46916;40.564;-7.958;2023-08-20T02:07:21;97680.19;;;23.66;82.76
61035;BME280;46916;40.564;-7.958;2023-08-20T02:09:22;97675.03;;;23.64;83.01
61035;BME280;46916;40.564;-7.958;2023-08-20T02:11:24;97677.88;;;23.63;82.83
61035;BME280;46916;40.564;-7.958;2023-08-20T02:13:25;97674.38;;;23.62;83.04
61035;BME280;46916;40.564;-7.958;2023-08-20T02:15:25;97673.34;;;23.63;83.26
61035;BME280;46916;40.564;-7.958;2023-08-20T02:17:26;97673.56;;;23.62;83.30
61035;BME280;46916;40.564;-7.958;2023-08-20T02:19:27;97681.38;;;23.63;83.12
61035;BME280;46916;40.564;-7.958;2023-08-20T02:21:29;97683.03;;;23.64;83.30
61035;BME280;46916;40.564;-7.958;2023-08-20T02:23:29;97685.53;;;23.66;83.60
61035;BME280;46916;40.564;-7.958;2023-08-20T02:25:30;97687.16;;;23.67;83.27
61035;BME280;46916;40.564;-7.958;2023-08-20T02:27:31;97687.16;;;23.67;83.29
61035;BME280;46916;40.564;-7.958;2023-08-20T02:29:31;97680.19;;;23.66;83.21
61035;BME280;46916;40.564;-7.958;2023-08-20T02:31:32;97673.16;;;23.65;83.20
61035;BME280;46916;40.564;-7.958;2023-08-20T02:33:33;97682.41;;;23.62;83.31
61035;BME280;46916;40.564;-7.958;2023-08-20T02:35:33;97677.06;;;23.62;83.56
61035;BME280;46916;40.564;-7.958;2023-08-20T02:37:35;97678.09;;;23.61;83.50
61035;BME280;46916;40.564;-7.958;2023-08-20T02:39:36;97679.56;;;23.64;83.68
61035;BME280;46916;40.564;-7.958;2023-08-20T02:41:37;97683.84;;;23.65;83.41
61035;BME280;46916;40.564;-7.958;2023-08-20T02:43:38;97677.69;;;23.64;83.50
61035;BME280;46916;40.564;-7.958;2023-08-20T02:45:40;97684.91;;;23.64;83.48
61035;BME280;46916;40.564;-7.958;2023-08-20T02:47:42;97679.56;;;23.64;83.63
61035;BME280;46916;40.564;-7.958;2023-08-20T02:49:43;97681.38;;;23.63;83.59
61035;BME280;46916;40.564;-7.958;2023-08-20T02:51:43;97676.03;;;23.63;83.63
61035;BME280;46916;40.564;-7.958;2023-08-20T02:53:44;97675.03;;;23.64;83.56
61035;BME280;46916;40.564;-7.958;2023-08-20T02:55:45;97677.50;;;23.66;83.66
61035;BME280;46916;40.564;-7.958;2023-08-20T02:57:45;97669.50;;;23.66;83.45
61035;BME280;46916;40.564;-7.958;2023-08-20T02:59:46;97680.59;;;23.69;83.57
61035;BME280;46916;40.564;-7.958;2023-08-20T03:01:47;97681.41;;;23.70;83.36
61035;BME280;46916;40.564;-7.958;2023-08-20T03:03:47;97674.44;;;23.69;83.62
61035;BME280;46916;40.564;-7.958;2023-08-20T03:05:48;97673.16;;;23.65;83.64
61035;BME280;46916;40.564;-7.958;2023-08-20T03:07:49;97680.38;;;23.64;83.87
61035;BME280;46916;40.564;-7.958;2023-08-20T03:09:49;97672.97;;;23.66;83.81
61035;BME280;46916;40.564;-7.958;2023-08-20T03:11:50;97672.78;;;23.68;83.89
61035;BME280;46916;40.564;-7.958;2023-08-20T03:13:51;97670.72;;;23.70;83.63
61035;BME280;46916;40.564;-7.958;2023-08-20T03:15:51;97674.22;;;23.70;83.69
61035;BME280;46916;40.564;-7.958;2023-08-20T03:17:52;97676.88;;;23.70;83.56
61035;BME280;46916;40.564;-7.958;2023-08-20T03:19:57;97666.00;;;23.72;83.42
61035;BME280;46916;40.564;-7.958;2023-08-20T03:21:58;97680.19;;;23.72;83.52
61035;BME280;46916;40.564;-7.958;2023-08-20T03:23:59;97669.50;;;23.72;83.27
61035;BME280;46916;40.564;-7.958;2023-08-20T03:25:59;97677.69;;;23.71;83.54
61035;BME280;46916;40.564;-7.958;2023-08-20T03:28:00;97669.69;;;23.71;83.30
61035;BME280;46916;40.564;-7.958;2023-08-20T03:30:01;97683.03;;;23.71;83.46
61035;BME280;46916;40.564;-7.958;2023-08-20T03:32:04;97670.50;;;23.71;83.42
61035;BME280;46916;40.564;-7.958;2023-08-20T03:34:04;97674.03;;;23.72;83.37
61035;BME280;46916;40.564;-7.958;2023-08-20T03:36:05;97677.69;;;23.71;83.57
61035;BME280;46916;40.564;-7.958;2023-08-20T03:38:06;97674.22;;;23.70;83.35
61035;BME280;46916;40.564;-7.958;2023-08-20T03:40:07;97677.28;;;23.67;83.65
61035;BME280;46916;40.564;-7.958;2023-08-20T03:42:08;97677.50;;;23.66;83.67
61035;BME280;46916;40.564;-7.958;2023-08-20T03:44:09;97677.69;;;23.64;83.56
61035;BME280;46916;40.564;-7.958;2023-08-20T03:46:09;97675.84;;;23.65;83.65
61035;BME280;46916;40.564;-7.958;2023-08-20T03:48:10;97679.13;;;23.67;83.53
61035;BME280;46916;40.564;-7.958;2023-08-20T03:50:11;97675.47;;;23.68;83.42
61035;BME280;46916;40.564;-7.958;2023-08-20T03:52:12;97677.69;;;23.71;83.14
61035;BME280;46916;40.564;-7.958;2023-08-20T03:54:12;97683.03;;;23.71;83.24
61035;BME280;46916;40.564;-7.958;2023-08-20T03:56:16;97685.53;;;23.72;83.07
61035;BME280;46916;40.564;-7.958;2023-08-20T03:58:20;97683.88;;;23.71;83.10
61035;BME280;46916;40.564;-7.958;2023-08-20T04:00:20;97691.06;;;23.71;82.97
61035;BME280;46916;40.564;-7.958;2023-08-20T04:02:21;97690.06;;;23.72;83.09
61035;BME280;46916;40.564;-7.958;2023-08-20T04:04:22;97688.63;;;23.69;83.08
61035;BME280;46916;40.564;-7.958;2023-08-20T04:06:23;97688.41;;;23.71;83.01
61035;BME280;46916;40.564;-7.958;2023-08-20T04:08:23;97688.63;;;23.69;83.12
61035;BME280;46916;40.564;-7.958;2023-08-20T04:10:24;97686.97;;;23.68;83.08
61035;BME280;46916;40.564;-7.958;2023-08-20T04:12:24;97684.50;;;23.67;83.42
61035;BME280;46916;40.564;-7.958;2023-08-20T04:14:25;97681.00;;;23.66;83.35
61035;BME280;46916;40.564;-7.958;2023-08-20T04:16:29;97689.84;;;23.67;83.54
61035;BME280;46916;40.564;-7.958;2023-08-20T04:18:29;97680.19;;;23.66;83.70
61035;BME280;46916;40.564;-7.958;2023-08-20T04:20:32;97683.84;;;23.65;83.63
61035;BME280;46916;40.564;-7.958;2023-08-20T04:22:32;97679.38;;;23.65;83.60
61035;BME280;46916;40.564;-7.958;2023-08-20T04:24:33;97673.16;;;23.65;83.57
61035;BME280;46916;40.564;-7.958;2023-08-20T04:26:34;97674.84;;;23.66;83.59
61035;BME280;46916;40.564;-7.958;2023-08-20T04:28:35;97674.84;;;23.66;83.62
61035;BME280;46916;40.564;-7.958;2023-08-20T04:30:35;97676.47;;;23.67;83.58
61035;BME280;46916;40.564;-7.958;2023-08-20T04:32:36;97671.13;;;23.67;83.53
61035;BME280;46916;40.564;-7.958;2023-08-20T04:34:37;97680.19;;;23.66;83.64
61035;BME280;46916;40.564;-7.958;2023-08-20T04:36:38;97674.84;;;23.66;83.80
61035;BME280;46916;40.564;-7.958;2023-08-20T04:38:38;97676.69;;;23.65;83.84
61035;BME280;46916;40.564;-7.958;2023-08-20T04:40:39;97682.03;;;23.65;83.63
61035;BME280;46916;40.564;-7.958;2023-08-20T04:42:40;97678.50;;;23.65;83.77
61035;BME280;46916;40.564;-7.958;2023-08-20T04:44:41;97683.84;;;23.65;83.89
61035;BME280;46916;40.564;-7.958;2023-08-20T04:46:42;97676.88;;;23.64;83.90
61035;BME280;46916;40.564;-7.958;2023-08-20T04:48:44;97672.53;;;23.63;83.91
61035;BME280;46916;40.564;-7.958;2023-08-20T04:50:44;97683.84;;;23.65;83.89
61035;BME280;46916;40.564;-7.958;2023-08-20T04:52:45;97678.69;;;23.63;84.24
61035;BME280;46916;40.564;-7.958;2023-08-20T04:54:51;97678.69;;;23.63;84.04
61035;BME280;46916;40.564;-7.958;2023-08-20T04:56:55;97676.88;;;23.64;84.06
61035;BME280;46916;40.564;-7.958;2023-08-20T04:58:57;97667.81;;;23.65;83.83
61035;BME280;46916;40.564;-7.958;2023-08-20T05:01:18;97678.13;;;23.68;83.84
61035;BME280;46916;40.564;-7.958;2023-08-20T05:03:18;97678.13;;;23.68;83.67
61035;BME280;46916;40.564;-7.958;2023-08-20T05:05:19;97676.69;;;23.65;84.10
61035;BME280;46916;40.564;-7.958;2023-08-20T05:07:20;97683.03;;;23.64;84.01
61035;BME280;46916;40.564;-7.958;2023-08-20T05:09:21;97685.09;;;23.62;84.14
61035;BME280;46916;40.564;-7.958;2023-08-20T05:11:22;97687.56;;;23.64;84.08
61035;BME280;46916;40.564;-7.958;2023-08-20T05:13:22;97692.91;;;23.64;83.97
61035;BME280;46916;40.564;-7.958;2023-08-20T05:15:27;97693.53;;;23.66;83.96
61035;BME280;46916;40.564;-7.958;2023-08-20T05:17:27;97692.72;;;23.65;84.08
61035;BME280;46916;40.564;-7.958;2023-08-20T05:19:28;97693.53;;;23.66;83.75
61035;BME280;46916;40.564;-7.958;2023-08-20T05:21:29;97692.50;;;23.67;84.12
61035;BME280;46916;40.564;-7.958;2023-08-20T05:23:31;97696.84;;;23.68;83.79
61035;BME280;46916;40.564;-7.958;2023-08-20T05:25:32;97695.00;;;23.68;83.84
61035;BME280;46916;40.564;-7.958;2023-08-20T05:27:32;97694.19;;;23.68;83.84
61035;BME280;46916;40.564;-7.958;2023-08-20T05:29:33;97695.81;;;23.69;83.75
61035;BME280;46916;40.564;-7.958;2023-08-20T05:31:35;97691.50;;;23.68;83.71
61035;BME280;46916;40.564;-7.958;2023-08-20T05:33:35;97693.53;;;23.66;83.86
61035;BME280;46916;40.564;-7.958;2023-08-20T05:35:37;97699.72;;;23.66;83.79
61035;BME280;46916;40.564;-7.958;2023-08-20T05:37:38;97702.56;;;23.65;83.71
61035;BME280;46916;40.564;-7.958;2023-08-20T05:39:43;97700.09;;;23.63;83.95
61035;BME280;46916;40.564;-7.958;2023-08-20T05:41:44;97706.28;;;23.64;83.95
61035;BME280;46916;40.564;-7.958;2023-08-20T05:43:45;97708.97;;;23.64;84.13
61035;BME280;46916;40.564;-7.958;2023-08-20T05:45:46;97707.28;;;23.63;83.73
61035;BME280;46916;40.564;-7.958;2023-08-20T05:47:52;97707.28;;;23.63;83.90
61035;BME280;46916;40.564;-7.958;2023-08-20T05:49:53;97712.44;;;23.64;83.94
61035;BME280;46916;40.564;-7.958;2023-08-20T05:51:54;97707.94;;;23.65;84.08
61035;BME280;46916;40.564;-7.958;2023-08-20T05:53:56;97714.94;;;23.66;84.04
61035;BME280;46916;40.564;-7.958;2023-08-20T05:55:56;97719.25;;;23.67;83.89
61035;BME280;46916;40.564;-7.958;2023-08-20T05:58:00;97715.75;;;23.66;83.98
61035;BME280;46916;40.564;-7.958;2023-08-20T06:00:03;97719.47;;;23.65;83.88
61035;BME280;46916;40.564;-7.958;2023-08-20T06:02:16;97715.31;;;23.63;83.99
61035;BME280;46916;40.564;-7.958;2023-08-20T06:04:18;97720.66;;;23.63;84.03
61035;BME280;46916;40.564;-7.958;2023-08-20T06:06:20;97720.66;;;23.63;84.17
61035;BME280;46916;40.564;-7.958;2023-08-20T06:08:21;97715.31;;;23.63;84.26
61035;BME280;46916;40.564;-7.958;2023-08-20T06:10:22;97718.81;;;23.63;84.24
61035;BME280;46916;40.564;-7.958;2023-08-20T06:12:23;97725.81;;;23.64;84.24
61035;BME280;46916;40.564;-7.958;2023-08-20T06:14:24;97723.34;;;23.63;84.27
61035;BME280;46916;40.564;-7.958;2023-08-20T06:16:25;97728.69;;;23.63;84.23
61035;BME280;46916;40.564;-7.958;2023-08-20T06:18:25;97729.50;;;23.63;84.22
61035;BME280;46916;40.564;-7.958;2023-08-20T06:20:26;97728.50;;;23.64;84.14
61035;BME280;46916;40.564;-7.958;2023-08-20T06:22:27;97729.31;;;23.65;84.02
61035;BME280;46916;40.564;-7.958;2023-08-20T06:24:27;97729.31;;;23.65;83.81
61035;BME280;46916;40.564;-7.958;2023-08-20T06:26:28;97728.09;;;23.67;83.28
61035;BME280;46916;40.564;-7.958;2023-08-20T06:28:29;97729.13;;;23.66;83.05
61035;BME280;46916;40.564;-7.958;2023-08-20T06:30:32;97734.06;;;23.69;82.83
61035;BME280;46916;40.564;-7.958;2023-08-20T06:32:33;97732.00;;;23.71;82.62
61035;BME280;46916;40.564;-7.958;2023-08-20T06:34:34;97727.50;;;23.72;82.59
61035;BME280;46916;40.564;-7.958;2023-08-20T06:36:36;97734.91;;;23.77;82.69
61035;BME280;46916;40.564;-7.958;2023-08-20T06:38:37;97732.81;;;23.79;82.82
61035;BME280;46916;40.564;-7.958;2023-08-20T06:40:38;97730.56;;;23.76;83.02
61035;BME280;46916;40.564;-7.958;2023-08-20T06:42:38;97731.59;;;23.81;83.12
61035;BME280;46916;40.564;-7.958;2023-08-20T06:44:39;97742.09;;;23.83;83.27
61035;BME280;46916;40.564;-7.958;2023-08-20T06:46:40;97742.72;;;23.85;82.95
61035;BME280;46916;40.564;-7.958;2023-08-20T06:48:41;97746.00;;;23.87;83.11
61035;BME280;46916;40.564;-7.958;2023-08-20T06:50:41;97745.16;;;23.86;83.18
61035;BME280;46916;40.564;-7.958;2023-08-20T06:52:42;97750.31;;;23.88;83.23
61035;BME280;46916;40.564;-7.958;2023-08-20T06:54:44;97749.47;;;23.87;83.28
61035;BME280;46916;40.564;-7.958;2023-08-20T06:56:45;97748.66;;;23.87;83.13
61035;BME280;46916;40.564;-7.958;2023-08-20T06:58:46;97746.00;;;23.87;83.39
61035;BME280;46916;40.564;-7.958;2023-08-20T07:00:46;97746.00;;;23.87;83.16
61035;BME280;46916;40.564;-7.958;2023-08-20T07:02:47;97746.63;;;23.89;83.50
61035;BME280;46916;40.564;-7.958;2023-08-20T07:04:47;97744.75;;;23.89;83.09
61035;BME280;46916;40.564;-7.958;2023-08-20T07:06:48;97743.72;;;23.90;83.17
61035;BME280;46916;40.564;-7.958;2023-08-20T07:08:49;97747.41;;;23.96;82.89
61035;BME280;46916;40.564;-7.958;2023-08-20T07:10:50;97747.63;;;24.01;82.65
61035;BME280;46916;40.564;-7.958;2023-08-20T07:12:51;97741.03;;;24.04;82.61
61035;BME280;46916;40.564;-7.958;2023-08-20T07:14:51;97741.44;;;24.14;82.35
61035;BME280;46916;40.564;-7.958;2023-08-20T07:16:52;97746.75;;;24.27;81.83
61035;BME280;46916;40.564;-7.958;2023-08-20T07:18:53;97745.50;;;24.36;81.41
61035;BME280;46916;40.564;-7.958;2023-08-20T07:20:55;97745.75;;;24.41;81.08
61035;BME280;46916;40.564;-7.958;2023-08-20T07:22:56;97746.75;;;24.40;81.02
61035;BME280;46916;40.564;-7.958;2023-08-20T07:24:56;97753.16;;;24.39;80.86
61035;BME280;46916;40.564;-7.958;2023-08-20T07:26:57;97755.38;;;24.36;80.87
61035;BME280;46916;40.564;-7.958;2023-08-20T07:29:00;97751.06;;;24.35;80.76
61035;BME280;46916;40.564;-7.958;2023-08-20T07:31:01;97752.09;;;24.34;80.62
61035;BME280;46916;40.564;-7.958;2023-08-20T07:33:02;97759.31;;;24.40;80.47
61035;BME280;46916;40.564;-7.958;2023-08-20T07:35:04;97757.00;;;24.57;79.88
61035;BME280;46916;40.564;-7.958;2023-08-20T07:37:04;97760.66;;;24.69;76.14
61035;BME280;46916;40.564;-7.958;2023-08-20T07:39:05;97756.53;;;24.73;74.75
61035;BME280;46916;40.564;-7.958;2023-08-20T07:41:06;97763.50;;;24.81;73.58
61035;BME280;46916;40.564;-7.958;2023-08-20T07:43:07;97762.06;;;24.85;73.22
61035;BME280;46916;40.564;-7.958;2023-08-20T07:45:08;97765.94;;;24.95;72.23
61035;BME280;46916;40.564;-7.958;2023-08-20T07:47:08;97758.69;;;25.03;71.05
61035;BME280;46916;40.564;-7.958;2023-08-20T07:49:09;97756.38;;;25.13;70.84
61035;BME280;46916;40.564;-7.958;2023-08-20T07:51:10;97766.69;;;25.16;70.31
61035;BME280;46916;40.564;-7.958;2023-08-20T07:53:10;97760.09;;;25.12;70.16
61035;BME280;46916;40.564;-7.958;2023-08-20T07:55:11;97763.84;;;25.11;70.75
61035;BME280;46916;40.564;-7.958;2023-08-20T07:57:12;97766.28;;;25.12;70.06
61035;BME280;46916;40.564;-7.958;2023-08-20T07:59:12;97768.34;;;25.10;70.49
61035;BME280;46916;40.564;-7.958;2023-08-20T08:01:13;97769.38;;;25.09;70.11
61035;BME280;46916;40.564;-7.958;2023-08-20T08:03:14;97766.28;;;25.06;70.06
61035;BME280;46916;40.564;-7.958;2023-08-20T08:05:17;97770.66;;;25.00;70.18
61035;BME280;46916;40.564;-7.958;2023-08-20T08:07:18;97771.28;;;24.95;70.03
61035;BME280;46916;40.564;-7.958;2023-08-20T08:09:20;97774.16;;;25.01;70.23
61035;BME280;46916;40.564;-7.958;2023-08-20T08:11:21;97771.25;;;25.02;70.05
61035;BME280;46916;40.564;-7.958;2023-08-20T08:13:23;97769.41;;;25.03;69.71
61035;BME280;46916;40.564;-7.958;2023-08-20T08:15:23;97778.28;;;25.03;69.78
61035;BME280;46916;40.564;-7.958;2023-08-20T08:17:24;97775.97;;;25.07;70.44
61035;BME280;46916;40.564;-7.958;2023-08-20T08:19:25;97769.59;;;25.08;70.12
61035;BME280;46916;40.564;-7.958;2023-08-20T08:21:26;97775.97;;;25.07;70.23
61035;BME280;46916;40.564;-7.958;2023-08-20T08:23:26;97787.09;;;25.10;70.35
61035;BME280;46916;40.564;-7.958;2023-08-20T08:25:27;97773.69;;;25.10;69.87
61035;BME280;46916;40.564;-7.958;2023-08-20T08:27:28;97773.69;;;25.10;69.95
61035;BME280;46916;40.564;-7.958;2023-08-20T08:29:29;97777.81;;;25.13;69.93
61035;BME280;46916;40.564;-7.958;2023-08-20T08:31:29;97776.75;;;25.20;69.42
61035;BME280;46916;40.564;-7.958;2023-08-20T08:33:30;97777.97;;;25.25;69.07
61035;BME280;46916;40.564;-7.958;2023-08-20T08:35:31;97780.66;;;25.25;69.28
61035;BME280;46916;40.564;-7.958;2023-08-20T08:37:31;97786.81;;;25.32;69.03
61035;BME280;46916;40.564;-7.958;2023-08-20T08:39:33;97778.38;;;25.28;68.53
61035;BME280;46916;40.564;-7.958;2023-08-20T08:41:35;97780.66;;;25.25;69.11
61035;BME280;46916;40.564;-7.958;2023-08-20T08:43:37;97772.00;;;25.23;69.10
61035;BME280;46916;40.564;-7.958;2023-08-20T08:45:38;97782.91;;;25.28;68.86
61035;BME280;46916;40.564;-7.958;2023-08-20T08:47:39;97779.59;;;25.26;69.21
61035;BME280;46916;40.564;-7.958;2023-08-20T08:49:40;97779.59;;;25.26;68.94
61035;BME280;46916;40.564;-7.958;2023-08-20T08:51:42;97782.09;;;25.27;68.87
61035;BME280;46916;40.564;-7.958;2023-08-20T08:53:43;97783.09;;;25.26;68.86
61035;BME280;46916;40.564;-7.958;2023-08-20T08:55:46;97775.69;;;25.28;69.04
61035;BME280;46916;40.564;-7.958;2023-08-20T08:57:47;97781.06;;;25.28;68.96
61035;BME280;46916;40.564;-7.958;2023-08-20T08:59:48;97780.41;;;25.33;68.34
61035;BME280;46916;40.564;-7.958;2023-08-20T09:01:49;97779.78;;;25.31;68.26
61035;BME280;46916;40.564;-7.958;2023-08-20T09:03:49;97776.28;;;25.30;68.31
61035;BME280;46916;40.564;-7.958;2023-08-20T09:05:55;97775.84;;;25.33;68.02
61035;BME280;46916;40.564;-7.958;2023-08-20T09:07:56;97780.56;;;25.38;67.62
61035;BME280;46916;40.564;-7.958;2023-08-20T09:09:58;97783.06;;;25.39;67.77
61035;BME280;46916;40.564;-7.958;2023-08-20T09:12:12;97776.84;;;25.39;67.28
61035;BME280;46916;40.564;-7.958;2023-08-20T09:14:27;97774.56;;;25.42;67.08
61035;BME280;46916;40.564;-7.958;2023-08-20T09:16:31;97791.25;;;25.44;66.77
61035;BME280;46916;40.564;-7.958;2023-08-20T09:18:41;97774.53;;;25.49;67.03
61035;BME280;46916;40.564;-7.958;2023-08-20T09:20:44;97777.16;;;25.56;66.21
61035;BME280;46916;40.564;-7.958;2023-08-20T09:22:48;97784.97;;;25.64;65.66
61035;BME280;46916;40.564;-7.958;2023-08-20T09:24:55;97776.28;;;25.62;65.11
61035;BME280;46916;40.564;-7.958;2023-08-20T09:26:57;97780.59;;;25.63;65.02
61035;BME280;46916;40.564;-7.958;2023-08-20T09:28:59;97775.25;;;25.63;65.11
61035;BME280;46916;40.564;-7.958;2023-08-20T09:31:00;97781.22;;;25.65;65.24
61035;BME280;46916;40.564;-7.958;2023-08-20T09:35:05;97782.00;;;25.72;64.75
61035;BME280;46916;40.564;-7.958;2023-08-20T09:37:13;97771.84;;;25.81;64.93
61035;BME280;46916;40.564;-7.958;2023-08-20T09:39:14;97776.56;;;25.85;64.23
61035;BME280;46916;40.564;-7.958;2023-08-20T09:41:15;97778.19;;;25.86;64.38
61035;BME280;46916;40.564;-7.958;2023-08-20T09:43:16;97775.28;;;25.88;64.16
61035;BME280;46916;40.564;-7.958;2023-08-20T09:45:19;97778.34;;;25.91;63.11
61035;BME280;46916;40.564;-7.958;2023-08-20T09:47:20;97771.97;;;25.92;63.14
61035;BME280;46916;40.564;-7.958;2023-08-20T09:49:26;97774.66;;;25.92;63.46
61035;BME280;46916;40.564;-7.958;2023-08-20T09:51:33;97781.22;;;25.97;63.45
61035;BME280;46916;40.564;-7.958;2023-08-20T09:53:35;97774.97;;;26.03;62.26
61035;BME280;46916;40.564;-7.958;2023-08-20T09:55:39;97770.38;;;26.10;61.29
61035;BME280;46916;40.564;-7.958;2023-08-20T09:57:41;97773.19;;;26.15;60.29
61035;BME280;46916;40.564;-7.958;2023-08-20T09:59:42;97765.59;;;26.12;59.93
61035;BME280;46916;40.564;-7.958;2023-08-20T10:01:43;97769.09;;;26.12;60.48
61035;BME280;46916;40.564;-7.958;2023-08-20T10:03:45;97768.06;;;26.13;60.28
61035;BME280;46916;40.564;-7.958;2023-08-20T10:05:46;97766.34;;;26.19;59.60
61035;BME280;46916;40.564;-7.958;2023-08-20T10:07:49;97770.22;;;26.23;59.32
61035;BME280;46916;40.564;-7.958;2023-08-20T10:09:50;97770.19;;;26.30;58.88
61035;BME280;46916;40.564;-7.958;2023-08-20T10:11:52;97765.63;;;26.30;58.65
61035;BME280;46916;40.564;-7.958;2023-08-20T10:13:53;97758.16;;;26.32;58.85
61035;BME280;46916;40.564;-7.958;2023-08-20T10:15:54;97756.66;;;26.36;59.18
61035;BME280;46916;40.564;-7.958;2023-08-20T10:17:57;97761.00;;;26.37;59.51
61035;BME280;46916;40.564;-7.958;2023-08-20T10:19:58;97760.53;;;26.40;59.95
61035;BME280;46916;40.564;-7.958;2023-08-20T10:22:02;97759.47;;;26.48;59.09
61035;BME280;46916;40.564;-7.958;2023-08-20T10:24:06;97759.47;;;26.48;59.01
61035;BME280;46916;40.564;-7.958;2023-08-20T10:26:08;97761.94;;;26.50;59.27
61035;BME280;46916;40.564;-7.958;2023-08-20T10:30:25;97764.09;;;26.59;59.32
61035;BME280;46916;40.564;-7.958;2023-08-20T10:32:47;97758.72;;;26.59;58.63
61035;BME280;46916;40.564;-7.958;2023-08-20T10:34:51;97762.00;;;26.61;58.74
61035;BME280;46916;40.564;-7.958;2023-08-20T10:36:52;97749.75;;;26.65;58.07
61035;BME280;46916;40.564;-7.958;2023-08-20T10:38:54;97754.47;;;26.70;58.01
61035;BME280;46916;40.564;-7.958;2023-08-20T10:40:57;97753.00;;;26.74;58.06
61035;BME280;46916;40.564;-7.958;2023-08-20T10:43:01;97743.63;;;26.77;57.79
61035;BME280;46916;40.564;-7.958;2023-08-20T10:45:05;97751.50;;;26.78;57.72
61035;BME280;46916;40.564;-7.958;2023-08-20T10:47:09;97749.63;;;26.79;57.30